createdAt,value
2019-04-03T00:00:46.740Z,0.00
2019-04-03T00:01:57.643Z,0.00
2019-04-03T00:03:08.989Z,0.00
2019-04-03T00:04:19.715Z,0.00
2019-04-03T00:05:30.555Z,0.00
2019-04-03T00:06:41.388Z,0.00
2019-04-03T00:07:52.217Z,0.00
2019-04-03T00:09:06.124Z,0.00
2019-04-03T00:10:14.424Z,0.00
2019-04-03T00:11:25.740Z,0.00
2019-04-03T00:12:40.490Z,0.00
2019-04-03T00:13:48.414Z,0.00
2019-04-03T00:14:59.231Z,0.00
2019-04-03T00:16:10.194Z,0.00
2019-04-03T00:17:20.874Z,0.00
2019-04-03T00:18:31.696Z,0.00
2019-04-03T00:19:42.517Z,0.00
2019-04-03T00:20:53.334Z,0.00
2019-04-03T00:22:04.174Z,0.00
2019-04-03T00:23:15.027Z,0.00
2019-04-03T00:24:25.844Z,0.00
2019-04-03T00:25:36.621Z,0.00
2019-04-03T00:26:47.446Z,0.00
2019-04-03T00:27:58.765Z,0.00
2019-04-03T00:29:09.689Z,0.00
2019-04-03T00:30:21.877Z,0.00
2019-04-03T00:31:31.213Z,0.00
2019-04-03T00:32:42.043Z,0.00
2019-04-03T00:33:53.388Z,0.00
2019-04-03T00:35:03.694Z,0.00
2019-04-03T00:36:14.541Z,0.00
2019-04-03T00:37:25.310Z,0.00
2019-04-03T00:38:36.129Z,0.00
2019-04-03T00:39:46.929Z,0.00
2019-04-03T00:40:57.740Z,0.00
2019-04-03T00:42:08.749Z,0.00
2019-04-03T00:43:19.397Z,0.00
2019-04-03T00:44:30.216Z,0.00
2019-04-03T00:45:41.029Z,0.00
2019-04-03T00:46:51.849Z,0.00
2019-04-03T00:48:02.654Z,0.00
2019-04-03T00:49:13.967Z,0.00
2019-04-03T00:50:26.140Z,0.00
2019-04-03T00:51:35.590Z,0.00
2019-04-03T00:52:46.458Z,0.00
2019-04-03T00:53:58.013Z,0.00
2019-04-03T00:55:08.028Z,0.00
2019-04-03T00:56:18.944Z,0.00
2019-04-03T00:57:29.642Z,0.00
2019-04-03T00:58:40.456Z,0.00
2019-04-03T00:59:51.275Z,0.00
2019-04-03T01:01:02.081Z,0.00
2019-04-03T01:02:12.883Z,0.00
2019-04-03T01:03:23.697Z,0.00
2019-04-03T01:04:35.223Z,0.00
2019-04-03T01:05:45.789Z,0.00
2019-04-03T01:06:58.537Z,0.00
2019-04-03T01:08:07.403Z,0.00
2019-04-03T01:09:18.300Z,0.00
2019-04-03T01:10:29.817Z,0.00
2019-04-03T01:11:39.807Z,0.00
2019-04-03T01:12:50.611Z,0.00
2019-04-03T01:14:02.232Z,0.00
2019-04-03T01:15:12.203Z,0.00
2019-04-03T01:16:23.058Z,0.00
2019-04-03T01:17:34.919Z,0.00
2019-04-03T01:18:45.174Z,0.00
2019-04-03T01:19:55.886Z,0.00
2019-04-03T01:21:07.180Z,0.00
2019-04-03T01:22:17.480Z,0.00
2019-04-03T01:23:28.283Z,0.00
2019-04-03T01:24:39.121Z,0.00
2019-04-03T01:25:50.371Z,0.00
2019-04-03T01:27:01.295Z,0.00
2019-04-03T01:28:12.052Z,0.00
2019-04-03T01:29:22.741Z,0.00
2019-04-03T01:30:33.540Z,0.00
2019-04-03T01:31:44.926Z,0.00
2019-04-03T01:32:55.107Z,0.00
2019-04-03T01:34:05.906Z,0.00
2019-04-03T01:35:17.393Z,0.00
2019-04-03T01:36:27.467Z,0.00
2019-04-03T01:37:38.259Z,0.00
2019-04-03T01:38:49.942Z,0.00
2019-04-03T01:39:59.851Z,0.00
2019-04-03T01:41:10.634Z,0.00
2019-04-03T01:42:22.459Z,0.00
2019-04-03T01:43:32.291Z,0.00
2019-04-03T01:44:43.032Z,0.00
2019-04-03T01:45:56.603Z,0.00
2019-04-03T01:47:04.584Z,0.00
2019-04-03T01:48:15.374Z,0.00
2019-04-03T01:49:28.143Z,0.00
2019-04-03T01:50:36.954Z,0.00
2019-04-03T01:51:47.746Z,0.00
2019-04-03T01:52:58.538Z,0.00
2019-04-03T01:54:09.360Z,0.00
2019-04-03T01:55:20.122Z,0.00
2019-04-03T01:56:31.397Z,0.00
2019-04-03T01:57:42.182Z,0.00
2019-04-03T01:58:53.125Z,0.00
2019-04-03T02:00:03.864Z,0.00
2019-04-03T02:01:15.050Z,0.00
2019-04-03T02:02:25.835Z,0.00
2019-04-03T02:03:36.618Z,0.00
2019-04-03T02:04:47.566Z,0.00
2019-04-03T02:05:58.191Z,0.00
2019-04-03T02:07:08.974Z,0.00
2019-04-03T02:08:19.765Z,0.00
2019-04-03T02:09:30.557Z,0.00
2019-04-03T02:10:41.341Z,0.00
2019-04-03T02:11:52.131Z,0.00
2019-04-03T02:13:03.421Z,0.00
2019-04-03T02:14:14.229Z,0.00
2019-04-03T02:15:25.103Z,0.00
2019-04-03T02:16:35.817Z,0.00
2019-04-03T02:17:47.114Z,0.00
2019-04-03T02:18:58.099Z,0.00
2019-04-03T02:20:08.707Z,0.00
2019-04-03T02:21:19.642Z,0.00
2019-04-03T02:22:30.277Z,0.00
2019-04-03T02:23:41.567Z,0.00
2019-04-03T02:24:52.361Z,0.00
2019-04-03T02:26:03.162Z,0.00
2019-04-03T02:27:13.949Z,0.00
2019-04-03T02:28:24.745Z,0.00
2019-04-03T02:29:35.544Z,0.00
2019-04-03T02:30:47.166Z,0.00
2019-04-03T02:31:57.631Z,0.00
2019-04-03T02:33:08.416Z,0.00
2019-04-03T02:34:19.210Z,0.00
2019-04-03T02:35:30.172Z,0.00
2019-04-03T02:36:43.339Z,0.00
2019-04-03T02:37:51.583Z,0.00
2019-04-03T02:39:02.373Z,0.00
2019-04-03T02:40:13.206Z,0.00
2019-04-03T02:41:23.972Z,0.00
2019-04-03T02:42:34.869Z,0.00
2019-04-03T02:43:47.169Z,0.00
2019-04-03T02:44:56.864Z,0.00
2019-04-03T02:46:07.645Z,0.00
2019-04-03T02:47:18.436Z,0.00
2019-04-03T02:48:29.281Z,0.00
2019-04-03T02:49:42.975Z,0.00
2019-04-03T02:50:50.833Z,0.00
2019-04-03T02:52:01.622Z,0.00
2019-04-03T02:53:12.916Z,0.00
2019-04-03T02:54:23.944Z,0.00
2019-04-03T02:55:34.531Z,0.00
2019-04-03T02:56:46.257Z,0.00
2019-04-03T02:57:56.621Z,0.00
2019-04-03T02:59:07.697Z,0.00
2019-04-03T03:00:18.223Z,0.00
2019-04-03T03:01:29.004Z,0.00
2019-04-03T03:02:40.329Z,0.00
2019-04-03T03:03:51.078Z,0.00
2019-04-03T03:05:01.890Z,0.00
2019-04-03T03:06:12.695Z,0.00
2019-04-03T03:07:23.476Z,0.00
2019-04-03T03:08:34.274Z,0.00
2019-04-03T03:09:46.648Z,0.00
2019-04-03T03:10:55.877Z,0.00
2019-04-03T03:12:07.175Z,0.00
2019-04-03T03:13:18.436Z,0.00
2019-04-03T03:14:29.245Z,0.00
2019-04-03T03:15:41.245Z,0.00
2019-04-03T03:16:51.196Z,0.00
2019-04-03T03:18:01.648Z,0.00
2019-04-03T03:19:12.442Z,0.00
2019-04-03T03:20:23.401Z,0.00
2019-04-03T03:21:34.037Z,0.00
2019-04-03T03:22:44.829Z,0.00
2019-04-03T03:23:56.770Z,0.00
2019-04-03T03:25:06.423Z,0.00
2019-04-03T03:26:17.718Z,0.00
2019-04-03T03:27:28.802Z,0.00
2019-04-03T03:28:39.494Z,0.00
2019-04-03T03:29:50.180Z,0.00
2019-04-03T03:31:04.100Z,0.00
2019-04-03T03:32:18.891Z,0.00
2019-04-03T03:33:33.175Z,0.00
2019-04-03T03:34:51.389Z,0.00
2019-04-03T03:35:47.221Z,0.00
2019-04-03T03:37:00.652Z,0.00
2019-04-03T03:38:07.005Z,0.00
2019-04-03T03:39:17.324Z,0.00
2019-04-03T03:40:27.824Z,0.00
2019-04-03T03:41:39.452Z,0.00
2019-04-03T03:42:49.893Z,0.00
2019-04-03T03:44:00.742Z,0.00
2019-04-03T03:45:11.475Z,0.00
2019-04-03T03:46:26.460Z,0.00
2019-04-03T03:47:35.156Z,0.00
2019-04-03T03:48:45.012Z,0.00
2019-04-03T03:49:54.617Z,0.00
2019-04-03T03:51:05.909Z,0.00
2019-04-03T03:52:16.705Z,0.00
2019-04-03T03:53:27.682Z,0.00
2019-04-03T03:54:38.711Z,0.00
2019-04-03T03:55:49.730Z,0.00
2019-04-03T03:57:03.963Z,0.00
2019-04-03T03:58:13.198Z,0.00
2019-04-03T03:59:23.095Z,0.00
2019-04-03T04:00:33.664Z,0.00
2019-04-03T04:01:44.986Z,0.00
2019-04-03T04:02:55.737Z,0.00
2019-04-03T04:04:07.002Z,0.00
2019-04-03T04:05:21.349Z,0.00
2019-04-03T04:06:30.236Z,0.00
2019-04-03T04:07:39.687Z,0.00
2019-04-03T04:08:50.597Z,0.00
2019-04-03T04:10:01.367Z,0.00
2019-04-03T04:11:12.158Z,0.00
2019-04-03T04:12:23.298Z,0.00
2019-04-03T04:13:34.522Z,0.00
2019-04-03T04:14:44.987Z,0.00
2019-04-03T04:15:55.778Z,0.00
2019-04-03T04:17:09.485Z,0.00
2019-04-03T04:18:17.856Z,0.00
2019-04-03T04:19:30.697Z,0.00
2019-04-03T04:20:39.767Z,0.00
2019-04-03T04:21:50.480Z,0.00
2019-04-03T04:23:00.972Z,0.00
2019-04-03T04:24:11.905Z,0.00
2019-04-03T04:25:22.548Z,0.00
2019-04-03T04:26:33.335Z,0.00
2019-04-03T04:27:44.135Z,0.00
2019-04-03T04:28:54.915Z,0.00
2019-04-03T04:30:06.222Z,0.00
2019-04-03T04:31:17.228Z,0.00
2019-04-03T04:32:27.895Z,0.00
2019-04-03T04:33:38.842Z,0.00
2019-04-03T04:34:50.501Z,0.00
2019-04-03T04:36:00.401Z,0.00
2019-04-03T04:37:11.671Z,0.00
2019-04-03T04:38:22.587Z,0.00
2019-04-03T04:39:33.366Z,0.00
2019-04-03T04:40:44.143Z,0.00
2019-04-03T04:41:54.933Z,0.00
2019-04-03T04:43:08.275Z,0.00
2019-04-03T04:44:17.495Z,0.00
2019-04-03T04:45:28.286Z,0.00
2019-04-03T04:46:39.559Z,0.00
2019-04-03T04:47:50.354Z,0.00
2019-04-03T04:49:01.148Z,0.00
2019-04-03T04:50:12.424Z,0.00
2019-04-03T04:51:23.927Z,0.00
2019-04-03T04:52:34.606Z,0.00
2019-04-03T04:53:45.400Z,0.00
2019-04-03T04:54:56.196Z,0.00
2019-04-03T04:56:07.425Z,0.00
2019-04-03T04:57:18.529Z,0.00
2019-04-03T04:58:29.253Z,5.63
2019-04-03T04:59:40.065Z,5.63
2019-04-03T05:00:52.996Z,5.63
2019-04-03T05:02:01.514Z,5.63
2019-04-03T05:03:12.168Z,5.63
2019-04-03T05:04:25.168Z,11.25
2019-04-03T05:05:33.752Z,11.25
2019-04-03T05:06:44.544Z,11.25
2019-04-03T05:07:55.328Z,11.25
2019-04-03T05:09:06.121Z,11.25
2019-04-03T05:10:17.979Z,11.25
2019-04-03T05:11:27.694Z,16.88
2019-04-03T05:12:39.165Z,16.88
2019-04-03T05:13:49.379Z,16.88
2019-04-03T05:15:00.162Z,16.88
2019-04-03T05:16:10.952Z,16.88
2019-04-03T05:17:21.735Z,16.88
2019-04-03T05:18:32.520Z,22.50
2019-04-03T05:19:43.320Z,22.50
2019-04-03T05:20:54.102Z,28.13
2019-04-03T05:22:04.893Z,33.75
2019-04-03T05:23:16.462Z,33.75
2019-04-03T05:24:28.830Z,39.38
2019-04-03T05:25:37.760Z,39.38
2019-04-03T05:26:48.555Z,39.38
2019-04-03T05:27:59.350Z,45.00
2019-04-03T05:29:10.146Z,45.00
2019-04-03T05:30:21.064Z,45.00
2019-04-03T05:31:31.939Z,50.63
2019-04-03T05:32:42.512Z,50.63
2019-04-03T05:33:53.310Z,50.63
2019-04-03T05:35:04.111Z,50.63
2019-04-03T05:36:15.403Z,56.25
2019-04-03T05:37:25.687Z,56.25
2019-04-03T05:38:38.094Z,61.88
2019-04-03T05:39:47.413Z,61.88
2019-04-03T05:40:58.290Z,56.25
2019-04-03T05:42:09.052Z,56.25
2019-04-03T05:43:19.781Z,56.25
2019-04-03T05:44:33.373Z,56.25
2019-04-03T05:45:42.394Z,56.25
2019-04-03T05:46:53.279Z,56.25
2019-04-03T05:48:04.341Z,56.25
2019-04-03T05:49:14.751Z,61.88
2019-04-03T05:50:26.355Z,61.88
2019-04-03T05:51:36.350Z,61.88
2019-04-03T05:52:47.152Z,61.88
2019-04-03T05:53:57.960Z,67.50
2019-04-03T05:55:09.653Z,73.13
2019-04-03T05:56:19.557Z,78.75
2019-04-03T05:57:30.383Z,90.00
2019-04-03T05:58:54.019Z,101.25
2019-04-03T06:00:00.047Z,106.88
2019-04-03T06:01:06.243Z,118.13
2019-04-03T06:02:16.842Z,129.38
2019-04-03T06:03:37.642Z,135.00
2019-04-03T06:04:35.165Z,140.63
2019-04-03T06:05:45.993Z,146.25
2019-04-03T06:06:56.793Z,146.25
2019-04-03T06:08:08.380Z,146.25
2019-04-03T06:09:20.117Z,146.25
2019-04-03T06:10:32.355Z,140.63
2019-04-03T06:11:41.218Z,140.63
2019-04-03T06:12:51.832Z,140.63
2019-04-03T06:14:02.862Z,146.25
2019-04-03T06:15:13.462Z,146.25
2019-04-03T06:16:24.975Z,151.88
2019-04-03T06:17:35.088Z,146.25
2019-04-03T06:18:47.567Z,135.00
2019-04-03T06:19:57.222Z,112.50
2019-04-03T06:21:08.285Z,112.50
2019-04-03T06:22:21.627Z,118.13
2019-04-03T06:23:30.176Z,123.75
2019-04-03T06:24:41.133Z,106.88
2019-04-03T06:25:52.314Z,95.63
2019-04-03T06:27:03.895Z,112.50
2019-04-03T06:28:14.940Z,146.25
2019-04-03T06:29:25.951Z,174.38
2019-04-03T06:30:37.269Z,185.63
2019-04-03T06:31:47.908Z,202.50
2019-04-03T06:33:00.929Z,202.50
2019-04-03T06:34:09.668Z,208.13
2019-04-03T06:35:20.513Z,213.75
2019-04-03T06:36:32.214Z,219.38
2019-04-03T06:37:43.042Z,225.00
2019-04-03T06:38:54.239Z,225.00
2019-04-03T06:40:04.710Z,219.38
2019-04-03T06:41:16.175Z,213.75
2019-04-03T06:42:26.880Z,213.75
2019-04-03T06:43:37.724Z,219.38
2019-04-03T06:44:48.571Z,236.25
2019-04-03T06:45:59.435Z,247.50
2019-04-03T06:47:10.276Z,264.38
2019-04-03T06:48:21.133Z,286.88
2019-04-03T06:49:32.064Z,309.38
2019-04-03T06:50:42.818Z,309.38
2019-04-03T06:51:53.679Z,315.00
2019-04-03T06:53:04.527Z,303.75
2019-04-03T06:54:15.900Z,292.50
2019-04-03T06:55:26.873Z,281.25
2019-04-03T06:56:39.977Z,270.00
2019-04-03T06:57:48.984Z,258.75
2019-04-03T06:58:59.850Z,253.13
2019-04-03T07:00:10.710Z,258.75
2019-04-03T07:01:21.647Z,275.63
2019-04-03T07:02:32.487Z,281.25
2019-04-03T07:03:43.308Z,286.88
2019-04-03T07:04:54.268Z,286.88
2019-04-03T07:06:05.024Z,292.50
2019-04-03T07:07:22.089Z,298.13
2019-04-03T07:08:32.132Z,303.75
2019-04-03T07:09:38.021Z,326.25
2019-04-03T07:10:54.942Z,365.63
2019-04-03T07:11:59.487Z,382.50
2019-04-03T07:13:10.357Z,410.63
2019-04-03T07:14:21.297Z,438.75
2019-04-03T07:15:32.115Z,472.50
2019-04-03T07:16:42.998Z,472.50
2019-04-03T07:17:53.884Z,438.75
2019-04-03T07:19:06.058Z,399.38
2019-04-03T07:20:19.362Z,382.50
2019-04-03T07:21:27.708Z,388.13
2019-04-03T07:22:37.962Z,399.38
2019-04-03T07:23:49.054Z,393.75
2019-04-03T07:25:02.624Z,393.75
2019-04-03T07:26:10.657Z,399.38
2019-04-03T07:27:21.558Z,388.13
2019-04-03T07:28:32.463Z,376.88
2019-04-03T07:29:43.369Z,382.50
2019-04-03T07:30:54.756Z,388.13
2019-04-03T07:32:05.682Z,388.13
2019-04-03T07:33:16.578Z,388.13
2019-04-03T07:34:27.681Z,360.00
2019-04-03T07:35:40.520Z,315.00
2019-04-03T07:36:50.776Z,253.13
2019-04-03T07:38:01.496Z,208.13
2019-04-03T07:39:12.399Z,208.13
2019-04-03T07:40:23.300Z,236.25
2019-04-03T07:41:34.206Z,247.50
2019-04-03T07:42:45.108Z,258.75
2019-04-03T07:43:58.917Z,253.13
2019-04-03T07:45:07.894Z,247.50
2019-04-03T07:46:18.795Z,281.25
2019-04-03T07:47:29.684Z,281.25
2019-04-03T07:48:40.586Z,281.25
2019-04-03T07:49:51.486Z,286.88
2019-04-03T07:51:02.383Z,270.00
2019-04-03T07:52:14.904Z,253.13
2019-04-03T07:53:25.182Z,241.88
2019-04-03T07:54:36.079Z,219.38
2019-04-03T07:55:47.459Z,202.50
2019-04-03T07:56:58.596Z,168.75
2019-04-03T07:58:09.257Z,185.63
2019-04-03T07:59:20.451Z,202.50
2019-04-03T08:00:31.518Z,230.63
2019-04-03T08:01:42.430Z,303.75
2019-04-03T08:02:53.517Z,371.25
2019-04-03T08:04:04.293Z,405.00
2019-04-03T08:05:15.204Z,438.75
2019-04-03T08:06:25.960Z,433.13
2019-04-03T08:07:37.854Z,427.50
2019-04-03T08:08:52.824Z,376.88
2019-04-03T08:10:00.697Z,309.38
2019-04-03T08:11:14.261Z,258.75
2019-04-03T08:12:22.579Z,241.88
2019-04-03T08:13:33.968Z,230.63
2019-04-03T08:14:45.123Z,208.13
2019-04-03T08:15:55.769Z,196.88
2019-04-03T08:17:06.663Z,185.63
2019-04-03T08:18:20.465Z,168.75
2019-04-03T08:19:29.960Z,174.38
2019-04-03T08:20:40.841Z,191.25
2019-04-03T08:21:51.733Z,219.38
2019-04-03T08:23:04.711Z,253.13
2019-04-03T08:24:13.516Z,275.63
2019-04-03T08:25:24.402Z,298.13
2019-04-03T08:26:35.284Z,315.00
2019-04-03T08:27:46.177Z,315.00
2019-04-03T08:28:57.309Z,331.88
2019-04-03T08:30:08.736Z,348.75
2019-04-03T08:31:19.067Z,371.25
2019-04-03T08:32:30.227Z,331.88
2019-04-03T08:33:41.139Z,320.63
2019-04-03T08:34:52.581Z,326.25
2019-04-03T08:36:06.826Z,326.25
2019-04-03T08:37:14.376Z,326.25
2019-04-03T08:38:25.370Z,337.50
2019-04-03T08:39:36.601Z,337.50
2019-04-03T08:40:47.069Z,382.50
2019-04-03T08:41:57.987Z,472.50
2019-04-03T08:43:08.881Z,540.00
2019-04-03T08:44:20.301Z,590.63
2019-04-03T08:45:31.209Z,607.50
2019-04-03T08:46:43.931Z,528.75
2019-04-03T08:47:54.057Z,466.88
2019-04-03T08:49:04.977Z,410.63
2019-04-03T08:50:15.896Z,337.50
2019-04-03T08:51:26.923Z,286.88
2019-04-03T08:52:37.845Z,264.38
2019-04-03T08:53:48.668Z,213.75
2019-04-03T08:54:59.591Z,185.63
2019-04-03T08:56:10.512Z,168.75
2019-04-03T08:57:21.592Z,163.13
2019-04-03T08:58:32.622Z,151.88
2019-04-03T08:59:43.263Z,157.50
2019-04-03T09:00:54.171Z,180.00
2019-04-03T09:02:07.060Z,168.75
2019-04-03T09:03:16.078Z,157.50
2019-04-03T09:04:27.385Z,163.13
2019-04-03T09:05:38.298Z,202.50
2019-04-03T09:06:49.214Z,230.63
2019-04-03T09:08:00.120Z,303.75
2019-04-03T09:09:11.009Z,348.75
2019-04-03T09:10:21.911Z,326.25
2019-04-03T09:11:35.553Z,292.50
2019-04-03T09:12:44.714Z,270.00
2019-04-03T09:13:55.925Z,253.13
2019-04-03T09:15:06.512Z,270.00
2019-04-03T09:16:17.426Z,331.88
2019-04-03T09:17:28.828Z,393.75
2019-04-03T09:18:39.764Z,444.38
2019-04-03T09:19:50.881Z,466.88
2019-04-03T09:21:01.549Z,433.13
2019-04-03T09:22:12.936Z,388.13
2019-04-03T09:23:25.115Z,365.63
2019-04-03T09:24:35.010Z,315.00
2019-04-03T09:25:45.751Z,281.25
2019-04-03T09:26:56.587Z,275.63
2019-04-03T09:28:08.960Z,230.63
2019-04-03T09:29:18.904Z,196.88
2019-04-03T09:30:29.820Z,174.38
2019-04-03T09:31:40.927Z,163.13
2019-04-03T09:32:53.185Z,151.88
2019-04-03T09:34:02.542Z,140.63
2019-04-03T09:35:13.598Z,123.75
2019-04-03T09:36:24.357Z,112.50
2019-04-03T09:37:38.018Z,112.50
2019-04-03T09:38:46.142Z,140.63
2019-04-03T09:39:57.178Z,129.38
2019-04-03T09:41:07.936Z,106.88
2019-04-03T09:42:19.590Z,106.88
2019-04-03T09:43:29.993Z,90.00
2019-04-03T09:44:40.794Z,78.75
2019-04-03T09:45:51.998Z,67.50
2019-04-03T09:47:03.775Z,67.50
2019-04-03T09:48:13.783Z,78.75
2019-04-03T09:49:24.667Z,90.00
2019-04-03T09:50:35.747Z,84.38
2019-04-03T09:51:46.436Z,123.75
2019-04-03T09:52:57.308Z,174.38
2019-04-03T09:54:08.670Z,174.38
2019-04-03T09:55:19.752Z,196.88
2019-04-03T09:56:30.436Z,208.13
2019-04-03T09:57:41.311Z,196.88
2019-04-03T09:58:52.185Z,174.38
2019-04-03T10:00:03.058Z,180.00
2019-04-03T10:01:17.695Z,168.75
2019-04-03T10:02:24.820Z,213.75
2019-04-03T10:03:35.683Z,270.00
2019-04-03T10:04:46.655Z,298.13
2019-04-03T10:05:59.378Z,230.63
2019-04-03T10:07:08.405Z,174.38
2019-04-03T10:08:19.183Z,208.13
2019-04-03T10:09:30.586Z,236.25
2019-04-03T10:10:41.469Z,196.88
2019-04-03T10:11:52.680Z,151.88
2019-04-03T10:13:03.692Z,129.38
2019-04-03T10:14:14.561Z,129.38
2019-04-03T10:15:25.422Z,151.88
2019-04-03T10:16:36.419Z,208.13
2019-04-03T10:17:47.650Z,230.63
2019-04-03T10:18:59.268Z,230.63
2019-04-03T10:20:10.076Z,230.63
2019-04-03T10:21:20.953Z,253.13
2019-04-03T10:22:31.619Z,275.63
2019-04-03T10:23:42.583Z,281.25
2019-04-03T10:24:53.451Z,270.00
2019-04-03T10:26:05.909Z,275.63
2019-04-03T10:27:15.194Z,315.00
2019-04-03T10:28:26.070Z,371.25
2019-04-03T10:29:36.950Z,337.50
2019-04-03T10:30:47.839Z,247.50
2019-04-03T10:31:59.210Z,163.13
2019-04-03T10:33:10.088Z,95.63
2019-04-03T10:34:20.964Z,84.38
2019-04-03T10:35:31.834Z,90.00
2019-04-03T10:36:43.685Z,101.25
2019-04-03T10:37:53.583Z,123.75
2019-04-03T10:39:04.445Z,168.75
2019-04-03T10:40:15.633Z,191.25
2019-04-03T10:41:28.398Z,213.75
2019-04-03T10:42:37.067Z,247.50
2019-04-03T10:43:47.944Z,275.63
2019-04-03T10:44:59.000Z,230.63
2019-04-03T10:46:09.820Z,202.50
2019-04-03T10:47:24.701Z,163.13
2019-04-03T10:48:32.134Z,146.25
2019-04-03T10:49:42.796Z,146.25
2019-04-03T10:50:53.613Z,140.63
2019-04-03T10:52:05.107Z,146.25
2019-04-03T10:53:15.860Z,151.88
2019-04-03T10:54:26.721Z,157.50
2019-04-03T10:55:37.924Z,180.00
2019-04-03T10:56:48.453Z,219.38
2019-04-03T10:58:01.619Z,264.38
2019-04-03T10:59:13.113Z,286.88
2019-04-03T11:00:23.508Z,286.88
2019-04-03T11:01:31.890Z,315.00
2019-04-03T11:46:34.572Z,770.63
2019-04-03T11:47:46.363Z,776.25
2019-04-03T11:48:56.487Z,770.63
2019-04-03T11:50:07.452Z,855.00
2019-04-03T11:51:18.419Z,810.00
2019-04-03T11:52:29.385Z,787.50
2019-04-03T11:53:40.472Z,922.50
2019-04-03T11:54:53.000Z,1001.25
2019-04-03T11:56:02.429Z,984.38
2019-04-03T11:57:14.002Z,1389.38
2019-04-03T11:58:24.474Z,2199.38
2019-04-03T11:59:35.480Z,2896.88
2019-04-03T12:00:46.530Z,2176.88
2019-04-03T12:01:57.655Z,2716.88
2019-04-03T12:03:10.717Z,1884.38
2019-04-03T12:04:20.315Z,1209.38
2019-04-03T12:05:31.513Z,1119.38
2019-04-03T12:06:42.570Z,1091.25
2019-04-03T12:07:55.779Z,1119.38
2019-04-03T12:09:04.836Z,2452.50
2019-04-03T12:10:15.978Z,1220.63
2019-04-03T12:11:27.143Z,1974.38
2019-04-03T12:12:38.471Z,1839.38
2019-04-03T12:13:49.501Z,1985.63
2019-04-03T12:15:00.694Z,1991.25
2019-04-03T12:16:11.901Z,1586.25
2019-04-03T12:17:23.114Z,877.50
2019-04-03T12:18:34.351Z,495.00
2019-04-03T12:19:46.161Z,399.38
2019-04-03T12:20:56.746Z,399.38
2019-04-03T12:22:07.924Z,376.88
2019-04-03T12:23:19.319Z,298.13
2019-04-03T12:24:30.465Z,264.38
2019-04-03T12:25:41.528Z,292.50
2019-04-03T12:26:55.427Z,348.75
2019-04-03T12:28:06.596Z,382.50
2019-04-03T12:29:14.790Z,371.25
2019-04-03T12:30:26.928Z,331.88
2019-04-03T12:31:36.994Z,281.25
2019-04-03T12:32:50.039Z,303.75
2019-04-03T12:34:04.183Z,208.13
2019-04-03T12:35:11.307Z,151.88
2019-04-03T12:36:21.457Z,168.75
2019-04-03T12:37:32.392Z,185.63
2019-04-03T12:38:43.358Z,258.75
2019-04-03T12:39:54.484Z,275.63
2019-04-03T12:41:06.060Z,315.00
2019-04-03T12:42:17.291Z,315.00
2019-04-03T12:43:27.624Z,303.75
2019-04-03T12:44:38.914Z,219.38
2019-04-03T12:45:49.563Z,163.13
2019-04-03T12:47:00.558Z,185.63
2019-04-03T12:48:11.543Z,196.88
2019-04-03T12:49:23.620Z,208.13
2019-04-03T12:50:33.625Z,208.13
2019-04-03T12:51:44.567Z,202.50
2019-04-03T12:52:55.453Z,225.00
2019-04-03T12:54:06.415Z,281.25
2019-04-03T12:55:17.385Z,405.00
2019-04-03T12:56:30.050Z,573.75
2019-04-03T12:57:40.345Z,646.88
2019-04-03T12:58:50.766Z,607.50
2019-04-03T13:00:01.737Z,573.75
2019-04-03T13:01:12.701Z,613.13
2019-04-03T13:02:23.665Z,697.50
2019-04-03T13:03:36.697Z,686.25
2019-04-03T13:04:45.817Z,607.50
2019-04-03T13:05:56.587Z,523.13
2019-04-03T13:07:07.572Z,450.00
2019-04-03T13:08:21.149Z,410.63
2019-04-03T13:09:30.020Z,365.63
2019-04-03T13:10:45.146Z,343.13
2019-04-03T13:11:52.499Z,354.38
2019-04-03T13:13:03.488Z,382.50
2019-04-03T13:14:23.836Z,433.13
2019-04-03T13:15:26.482Z,545.63
2019-04-03T13:16:37.771Z,596.25
2019-04-03T13:17:49.043Z,573.75
2019-04-03T13:18:59.389Z,500.63
2019-04-03T13:20:10.482Z,433.13
2019-04-03T13:21:21.447Z,371.25
2019-04-03T13:22:32.415Z,343.13
2019-04-03T13:23:45.804Z,309.38
2019-04-03T13:24:55.217Z,281.25
2019-04-03T13:26:05.810Z,253.13
2019-04-03T13:27:16.806Z,241.88
2019-04-03T13:28:28.085Z,258.75
2019-04-03T13:29:40.408Z,303.75
2019-04-03T13:30:50.145Z,354.38
2019-04-03T13:32:01.103Z,393.75
2019-04-03T13:33:12.239Z,416.25
2019-04-03T13:34:23.149Z,466.88
2019-04-03T13:35:34.041Z,551.25
2019-04-03T13:36:44.894Z,675.00
2019-04-03T13:37:56.309Z,866.25
2019-04-03T13:39:06.792Z,928.13
2019-04-03T13:40:17.855Z,849.38
2019-04-03T13:41:28.934Z,736.88
2019-04-03T13:42:40.194Z,708.75
2019-04-03T13:43:53.806Z,776.25
2019-04-03T13:45:02.941Z,776.25
2019-04-03T13:46:13.655Z,607.50
2019-04-03T13:47:24.908Z,658.13
2019-04-03T13:48:35.638Z,691.88
2019-04-03T13:49:49.352Z,821.25
2019-04-03T13:50:57.690Z,995.63
2019-04-03T13:52:09.997Z,871.88
2019-04-03T13:53:20.956Z,956.25
2019-04-03T13:54:31.541Z,1040.63
2019-04-03T13:55:42.543Z,984.38
2019-04-03T13:56:53.799Z,961.88
2019-04-03T13:58:04.230Z,1001.25
2019-04-03T13:59:15.491Z,1006.88
2019-04-03T14:00:26.587Z,1091.25
2019-04-03T14:01:39.491Z,928.13
2019-04-03T14:02:48.415Z,798.75
2019-04-03T14:03:59.509Z,804.38
2019-04-03T14:05:10.773Z,815.63
2019-04-03T14:06:21.876Z,635.63
2019-04-03T14:07:32.984Z,517.50
2019-04-03T14:08:45.249Z,410.63
2019-04-03T14:09:55.834Z,331.88
2019-04-03T14:11:05.931Z,298.13
2019-04-03T14:12:17.157Z,315.00
2019-04-03T14:13:27.931Z,337.50
2019-04-03T14:14:38.965Z,348.75
2019-04-03T14:15:50.318Z,348.75
2019-04-03T14:17:01.009Z,343.13
2019-04-03T14:18:12.060Z,331.88
2019-04-03T14:19:24.962Z,331.88
2019-04-03T14:20:34.043Z,337.50
2019-04-03T14:21:45.115Z,343.13
2019-04-03T14:22:56.384Z,388.13
2019-04-03T14:24:08.772Z,427.50
2019-04-03T14:25:22.292Z,455.63
2019-04-03T14:26:29.026Z,466.88
2019-04-03T14:27:40.027Z,478.13
2019-04-03T14:28:51.018Z,472.50
2019-04-03T14:30:02.008Z,450.00
2019-04-03T14:31:12.957Z,421.88
2019-04-03T14:32:24.316Z,393.75
2019-04-03T14:33:43.574Z,365.63
2019-04-03T14:34:45.935Z,388.13
2019-04-03T14:35:56.904Z,421.88
2019-04-03T14:37:07.889Z,444.38
2019-04-03T14:38:18.914Z,438.75
2019-04-03T14:39:29.838Z,410.63
2019-04-03T14:40:41.386Z,376.88
2019-04-03T14:41:54.336Z,337.50
2019-04-03T14:43:03.003Z,303.75
2019-04-03T14:44:13.754Z,281.25
2019-04-03T14:45:24.688Z,275.63
2019-04-03T14:46:35.646Z,275.63
2019-04-03T14:47:46.614Z,264.38
2019-04-03T14:48:59.294Z,241.88
2019-04-03T14:50:08.520Z,230.63
2019-04-03T14:51:19.479Z,241.88
2019-04-03T14:52:30.695Z,258.75
2019-04-03T14:53:41.382Z,281.25
2019-04-03T14:54:53.979Z,292.50
2019-04-03T14:56:03.726Z,309.38
2019-04-03T14:57:20.724Z,337.50
2019-04-03T14:58:26.845Z,365.63
2019-04-03T14:59:36.538Z,382.50
2019-04-03T15:00:49.487Z,399.38
2019-04-03T15:01:58.422Z,416.25
2019-04-03T15:03:09.462Z,405.00
2019-04-03T15:04:20.404Z,371.25
2019-04-03T15:05:31.330Z,326.25
2019-04-03T15:06:42.493Z,292.50
2019-04-03T15:07:53.203Z,292.50
2019-04-03T15:09:04.516Z,303.75
2019-04-03T15:10:15.378Z,281.25
2019-04-03T15:11:26.677Z,258.75
2019-04-03T15:12:39.829Z,253.13
2019-04-03T15:13:49.830Z,275.63
2019-04-03T15:14:59.228Z,303.75
2019-04-03T15:16:09.946Z,298.13
2019-04-03T15:17:20.675Z,253.13
2019-04-03T15:18:31.600Z,196.88
2019-04-03T15:19:43.103Z,135.00
2019-04-03T15:20:53.447Z,106.88
2019-04-03T15:22:04.503Z,84.38
2019-04-03T15:23:15.401Z,78.75
2019-04-03T15:24:26.306Z,73.13
2019-04-03T15:25:37.345Z,73.13
2019-04-03T15:26:48.125Z,73.13
2019-04-03T15:27:59.893Z,73.13
2019-04-03T15:29:09.934Z,67.50
2019-04-03T15:30:20.822Z,67.50
2019-04-03T15:31:31.727Z,73.13
2019-04-03T15:32:42.658Z,78.75
2019-04-03T15:33:55.413Z,101.25
2019-04-03T15:35:05.290Z,118.13
2019-04-03T15:36:15.828Z,112.50
2019-04-03T15:37:26.709Z,95.63
2019-04-03T15:38:37.597Z,84.38
2019-04-03T15:39:55.732Z,78.75
2019-04-03T15:40:59.856Z,78.75
2019-04-03T15:42:10.628Z,73.13
2019-04-03T15:43:21.304Z,61.88
2019-04-03T15:44:31.993Z,50.63
2019-04-03T15:45:43.357Z,50.63
2019-04-03T15:46:54.034Z,45.00
2019-04-03T15:48:04.895Z,39.38
2019-04-03T15:49:15.722Z,33.75
2019-04-03T15:50:28.010Z,33.75